createdAt,value
2022-08-30T00:00:11.326Z,1133.82
2022-08-30T00:01:12.521Z,1133.73
2022-08-30T00:02:11.380Z,1133.76
2022-08-30T00:03:11.465Z,1133.79
2022-08-30T00:04:11.336Z,1133.85
2022-08-30T00:05:11.335Z,1133.86
2022-08-30T00:06:11.355Z,1133.88
2022-08-30T00:07:11.338Z,1133.78
2022-08-30T00:08:11.339Z,1133.79
2022-08-30T00:09:11.341Z,1133.78
2022-08-30T00:10:11.342Z,1133.78
2022-08-30T00:11:11.364Z,1133.72
2022-08-30T00:12:11.348Z,1133.71
2022-08-30T00:13:11.348Z,1133.71
2022-08-30T00:14:11.349Z,1133.71
2022-08-30T00:15:11.763Z,1133.59
2022-08-30T00:16:11.445Z,1133.53
2022-08-30T00:17:11.358Z,1133.32
2022-08-30T00:18:11.361Z,1133.34
2022-08-30T00:19:11.362Z,1133.2
2022-08-30T00:20:11.362Z,1133.27
2022-08-30T00:21:11.378Z,1133.1
2022-08-30T00:22:11.363Z,1133.08
2022-08-30T00:23:11.365Z,1132.97
2022-08-30T00:24:11.369Z,1132.97
2022-08-30T00:25:11.370Z,1132.92
2022-08-30T00:26:13.117Z,1132.81
2022-08-30T00:27:11.374Z,1132.82
2022-08-30T00:28:11.378Z,1132.75
2022-08-30T00:29:11.388Z,1132.71
2022-08-30T00:30:11.380Z,1132.65
2022-08-30T00:31:11.426Z,1132.53
2022-08-30T00:32:11.381Z,1132.51
2022-08-30T00:33:11.384Z,1132.42
2022-08-30T00:34:11.385Z,1132.31
2022-08-30T00:35:11.388Z,1132.24
2022-08-30T00:36:11.395Z,1132
2022-08-30T00:37:14.465Z,1131.99
2022-08-30T00:38:11.399Z,1131.9
2022-08-30T00:39:11.402Z,1131.8
2022-08-30T00:40:11.412Z,1131.6
2022-08-30T00:41:11.401Z,1131.49
2022-08-30T00:42:11.404Z,1131.41
2022-08-30T00:43:13.903Z,1131.33
2022-08-30T00:44:11.403Z,1131.19
2022-08-30T00:45:11.405Z,1131.12
2022-08-30T00:46:11.425Z,1131.08
2022-08-30T00:47:11.416Z,1131.03
2022-08-30T00:48:14.430Z,1130.9
2022-08-30T00:49:11.412Z,1131
2022-08-30T00:50:11.414Z,1130.92
2022-08-30T00:51:11.428Z,1130.84
2022-08-30T00:52:11.419Z,1130.71
2022-08-30T00:53:11.418Z,1130.77
2022-08-30T00:54:11.425Z,1130.85
2022-08-30T00:55:11.422Z,1130.82
2022-08-30T00:56:11.424Z,1130.78
2022-08-30T00:57:11.431Z,1130.86
2022-08-30T00:58:11.436Z,1130.82
2022-08-30T00:59:11.431Z,1130.74
2022-08-30T01:00:11.431Z,1130.76
2022-08-30T01:01:11.537Z,1130.64
2022-08-30T01:02:11.489Z,1130.5
2022-08-30T01:03:11.442Z,1130.41
2022-08-30T01:04:11.442Z,1130.17
2022-08-30T01:05:11.442Z,1130.08
2022-08-30T01:06:11.467Z,1130.05
2022-08-30T01:07:11.450Z,1129.9
2022-08-30T01:08:11.446Z,1129.75
2022-08-30T01:09:11.448Z,1129.64
2022-08-30T01:10:11.450Z,1129.55
2022-08-30T01:11:11.453Z,1129.49
2022-08-30T01:12:11.451Z,1129.31
2022-08-30T01:13:11.453Z,1129.19
2022-08-30T01:14:11.457Z,1129.03
2022-08-30T01:15:11.456Z,1128.96
2022-08-30T01:16:11.547Z,1128.85
2022-08-30T01:17:11.460Z,1128.75
2022-08-30T01:18:11.465Z,1128.63
2022-08-30T01:19:11.463Z,1128.69
2022-08-30T01:20:11.478Z,1128.57
2022-08-30T01:21:11.485Z,1128.77
2022-08-30T01:22:11.484Z,1128.8
2022-08-30T01:23:11.473Z,1128.77
2022-08-30T01:24:11.474Z,1128.76
2022-08-30T01:25:11.570Z,1128.65
2022-08-30T01:26:11.498Z,1128.61
2022-08-30T01:27:11.478Z,1128.59
2022-08-30T01:28:11.495Z,1128.45
2022-08-30T01:29:11.503Z,1128.47
2022-08-30T01:30:11.496Z,1128.33
2022-08-30T01:31:11.579Z,1128.34
2022-08-30T01:32:11.508Z,1128.13
2022-08-30T01:33:11.669Z,1128.06
2022-08-30T01:34:11.508Z,1127.89
2022-08-30T01:35:11.506Z,1127.83
2022-08-30T01:36:11.503Z,1127.76
2022-08-30T01:37:11.527Z,1127.72
2022-08-30T01:38:11.502Z,1127.65
2022-08-30T01:39:11.512Z,1127.49
2022-08-30T01:40:11.559Z,1127.39
2022-08-30T01:41:11.509Z,1127.21
2022-08-30T01:42:11.524Z,1127.18
2022-08-30T01:43:11.513Z,1126.88
2022-08-30T01:44:11.510Z,1126.71
2022-08-30T01:45:11.513Z,1126.58
2022-08-30T01:46:11.579Z,1126.57
2022-08-30T01:47:11.545Z,1126.41
2022-08-30T01:48:11.514Z,1126.33
2022-08-30T01:49:11.519Z,1126.23
2022-08-30T01:50:11.518Z,1126.05
2022-08-30T01:51:11.531Z,1125.91
2022-08-30T01:52:11.538Z,1125.87
2022-08-30T01:53:12.286Z,1125.59
2022-08-30T01:54:11.533Z,1125.5
2022-08-30T01:55:11.535Z,1125.38
2022-08-30T01:56:11.536Z,1125.33
2022-08-30T01:57:11.559Z,1125.21
2022-08-30T01:58:11.534Z,1125.1
2022-08-30T01:59:11.535Z,1125.14
2022-08-30T02:00:11.543Z,1125.08
2022-08-30T02:01:11.587Z,1125.13
2022-08-30T02:02:11.557Z,1125.07
2022-08-30T02:03:11.540Z,1125
2022-08-30T02:04:11.647Z,1124.85
2022-08-30T02:05:11.544Z,1124.8
2022-08-30T02:06:11.547Z,1124.66
2022-08-30T02:07:11.565Z,1124.57
2022-08-30T02:08:11.552Z,1124.62
2022-08-30T02:09:11.553Z,1124.55
2022-08-30T02:10:14.578Z,1124.32
2022-08-30T02:11:11.557Z,1124.4
2022-08-30T02:12:11.575Z,1124.3
2022-08-30T02:13:11.557Z,1124.15
2022-08-30T02:14:11.567Z,1123.93
2022-08-30T02:15:11.566Z,1123.88
2022-08-30T02:16:11.633Z,1123.67
2022-08-30T02:17:11.582Z,1123.47
2022-08-30T02:18:11.568Z,1123.4
2022-08-30T02:19:12.049Z,1123.36
2022-08-30T02:20:11.575Z,1123.15
2022-08-30T02:21:14.341Z,1123.11
2022-08-30T02:22:11.597Z,1123.02
2022-08-30T02:23:11.581Z,1123.05
2022-08-30T02:24:11.580Z,1122.83
2022-08-30T02:25:16.457Z,1122.84
2022-08-30T02:26:11.585Z,1122.96
2022-08-30T02:27:11.602Z,1122.88
2022-08-30T02:28:11.587Z,1122.75
2022-08-30T02:29:11.586Z,1122.48
2022-08-30T02:30:11.593Z,1122.48
2022-08-30T02:31:11.680Z,1122.33
2022-08-30T02:32:11.609Z,1122.15
2022-08-30T02:33:11.595Z,1121.96
2022-08-30T02:34:11.596Z,1121.89
2022-08-30T02:35:11.595Z,1121.9
2022-08-30T02:36:11.602Z,1121.97
2022-08-30T02:37:11.617Z,1122.02
2022-08-30T02:38:11.601Z,1121.87
2022-08-30T02:39:11.606Z,1121.76
2022-08-30T02:40:11.708Z,1121.7
2022-08-30T02:41:11.608Z,1121.7
2022-08-30T02:42:11.637Z,1121.5
2022-08-30T02:43:11.616Z,1121.46
2022-08-30T02:44:11.615Z,1121.32
2022-08-30T02:45:11.623Z,1121.04
2022-08-30T02:46:11.696Z,1121.06
2022-08-30T02:47:11.658Z,1120.93
2022-08-30T02:48:11.619Z,1120.88
2022-08-30T02:50:11.631Z,1120.8
2022-08-30T02:51:11.846Z,1120.63
2022-08-30T02:52:11.641Z,1120.6
2022-08-30T02:53:16.195Z,1120.53
2022-08-30T02:54:11.631Z,1120.35
2022-08-30T02:55:11.634Z,1120.27
2022-08-30T02:56:11.648Z,1120.18
2022-08-30T02:57:12.352Z,1119.92
2022-08-30T02:58:11.639Z,1119.94
2022-08-30T02:59:11.645Z,1119.71
2022-08-30T03:00:11.641Z,1119.73
2022-08-30T03:01:11.666Z,1119.48
2022-08-30T03:02:11.663Z,1119.33
2022-08-30T03:03:11.645Z,1119.18
2022-08-30T03:04:14.485Z,1118.8
2022-08-30T03:05:11.651Z,1118.61
2022-08-30T03:06:11.652Z,1118.22
2022-08-30T03:07:11.671Z,1117.6
2022-08-30T03:08:11.653Z,1117.67
2022-08-30T03:09:11.655Z,1117.41
2022-08-30T03:10:11.660Z,1117.14
2022-08-30T03:11:11.664Z,1116.82
2022-08-30T03:12:11.690Z,1116.63
2022-08-30T03:13:11.662Z,1116.42
2022-08-30T03:14:11.666Z,1116.19
2022-08-30T03:15:14.499Z,1116.09
2022-08-30T03:16:11.740Z,1115.87
2022-08-30T03:17:12.823Z,1115.81
2022-08-30T03:18:11.678Z,1115.72
2022-08-30T03:19:11.675Z,1115.62
2022-08-30T03:20:11.674Z,1115.36
2022-08-30T03:21:11.677Z,1115.54
2022-08-30T03:22:11.695Z,1115.45
2022-08-30T03:23:11.680Z,1115.38
2022-08-30T03:24:11.682Z,1115.35
2022-08-30T03:25:11.685Z,1115.39
2022-08-30T03:26:14.493Z,1115.37
2022-08-30T03:27:11.705Z,1115.57
2022-08-30T03:28:11.692Z,1115.65
2022-08-30T03:29:11.693Z,1115.37
2022-08-30T03:30:11.691Z,1115.55
2022-08-30T03:31:11.708Z,1115.62
2022-08-30T03:32:11.791Z,1115.54
2022-08-30T03:33:11.698Z,1115.5
2022-08-30T03:34:11.698Z,1115.32
2022-08-30T03:35:11.704Z,1115.02
2022-08-30T03:36:11.704Z,1114.71
2022-08-30T03:37:11.721Z,1114.54
2022-08-30T03:38:11.706Z,1114.41
2022-08-30T03:39:12.532Z,1114.46
2022-08-30T03:40:11.736Z,1114.34
2022-08-30T03:41:11.709Z,1114.3
2022-08-30T03:42:11.732Z,1114.11
2022-08-30T03:43:11.716Z,1113.89
2022-08-30T03:44:11.719Z,1113.51
2022-08-30T03:45:11.723Z,1113.29
2022-08-30T03:46:11.756Z,1113.48
2022-08-30T03:47:11.748Z,1113.4
2022-08-30T03:48:11.725Z,1113.4
2022-08-30T03:49:11.726Z,1113.38
2022-08-30T03:50:11.725Z,1113.29
2022-08-30T03:51:11.729Z,1113.1
2022-08-30T03:52:11.745Z,1113.07
2022-08-30T03:53:11.731Z,1112.97
2022-08-30T03:54:11.734Z,1112.85
2022-08-30T03:55:11.738Z,1112.88
2022-08-30T03:56:11.737Z,1112.96
2022-08-30T03:57:13.341Z,1113
2022-08-30T03:58:11.744Z,1112.99
2022-08-30T03:59:11.744Z,1112.88
2022-08-30T04:00:11.744Z,1112.82
2022-08-30T04:01:11.782Z,1113.03
2022-08-30T04:02:11.847Z,1113.2
2022-08-30T04:03:11.750Z,1113.12
2022-08-30T04:04:11.753Z,1112.78
2022-08-30T04:05:11.753Z,1112.88
2022-08-30T04:06:11.755Z,1112.9
2022-08-30T04:07:11.776Z,1112.74
2022-08-30T04:08:11.762Z,1112.76
2022-08-30T04:09:11.762Z,1112.77
2022-08-30T04:10:11.761Z,1112.85
2022-08-30T04:11:11.762Z,1112.91
2022-08-30T04:12:11.791Z,1112.82
2022-08-30T04:13:11.768Z,1112.7
2022-08-30T04:14:11.771Z,1112.83
2022-08-30T04:15:11.772Z,1112.53
2022-08-30T04:16:11.804Z,1112.48
2022-08-30T04:17:11.787Z,1112.3
2022-08-30T04:18:11.786Z,1112.32
2022-08-30T04:19:11.776Z,1112.12
2022-08-30T04:20:11.779Z,1112.3
2022-08-30T04:21:14.091Z,1112.27
2022-08-30T04:22:11.797Z,1112.33
2022-08-30T04:23:11.783Z,1112.04
2022-08-30T04:24:11.792Z,1112.14
2022-08-30T04:25:12.966Z,1112.01
2022-08-30T04:26:11.792Z,1111.8
2022-08-30T04:27:11.804Z,1111.66
2022-08-30T04:28:11.796Z,1111.67
2022-08-30T04:29:11.815Z,1111.39
2022-08-30T04:30:11.795Z,1111.4
2022-08-30T04:31:12.065Z,1111.26
2022-08-30T04:32:11.813Z,1111.16
2022-08-30T04:33:11.799Z,1110.92
2022-08-30T04:34:11.801Z,1110.75
2022-08-30T04:35:11.805Z,1110.31
2022-08-30T04:36:11.805Z,1110.16
2022-08-30T04:37:12.282Z,1109.94
2022-08-30T04:38:11.813Z,1109.8
2022-08-30T04:39:11.811Z,1109.48
2022-08-30T04:40:11.873Z,1109.17
2022-08-30T04:41:11.815Z,1108.9
2022-08-30T04:42:11.814Z,1108.49
2022-08-30T04:43:11.818Z,1108.45
2022-08-30T04:44:14.174Z,1108.37
2022-08-30T04:45:11.823Z,1108.28
2022-08-30T04:46:11.856Z,1108.15
2022-08-30T04:47:11.828Z,1108.18
2022-08-30T04:48:14.607Z,1108.34
2022-08-30T04:49:11.829Z,1108.45
2022-08-30T04:50:11.835Z,1108.59
2022-08-30T04:51:11.835Z,1108.94
2022-08-30T04:52:11.832Z,1109.09
2022-08-30T04:53:11.837Z,1109.39
2022-08-30T04:54:11.836Z,1109.41
2022-08-30T04:55:11.836Z,1109.56
2022-08-30T04:56:11.841Z,1109.63
2022-08-30T04:57:11.841Z,1109.7
2022-08-30T04:58:11.849Z,1109.92
2022-08-30T04:59:11.849Z,1110.13
2022-08-30T05:00:11.848Z,1110.48
2022-08-30T05:01:11.863Z,1109.98
2022-08-30T05:02:14.356Z,1110.35
2022-08-30T05:03:11.854Z,1110.67
2022-08-30T05:04:11.854Z,1110.88
2022-08-30T05:05:11.856Z,1111.29
2022-08-30T05:06:11.857Z,1111.29
2022-08-30T05:07:11.859Z,1111.72
2022-08-30T05:08:11.859Z,1112.01
2022-08-30T05:09:11.862Z,1112.27
2022-08-30T05:10:11.866Z,1112.56
2022-08-30T05:11:11.865Z,1112.92
2022-08-30T05:12:11.871Z,1113.26
2022-08-30T05:13:11.872Z,1113.3
2022-08-30T05:14:11.873Z,1113.5
2022-08-30T05:15:11.877Z,1113.64
2022-08-30T05:16:12.002Z,1113.74
2022-08-30T05:17:11.888Z,1113.79
2022-08-30T05:18:13.387Z,1114.09
2022-08-30T05:19:11.880Z,1114.43
2022-08-30T05:20:14.737Z,1114.37
2022-08-30T05:21:11.884Z,1115.05
2022-08-30T05:22:11.888Z,1115.33
2022-08-30T05:23:11.888Z,1115.74
2022-08-30T05:24:11.891Z,1116.23
2022-08-30T05:25:14.708Z,1116.47
2022-08-30T05:26:11.891Z,1116.67
2022-08-30T05:27:11.894Z,1116.89
2022-08-30T05:28:11.900Z,1116.92
2022-08-30T05:29:11.897Z,1117.08
2022-08-30T05:30:11.899Z,1117.16
2022-08-30T05:31:15.032Z,1117.01
2022-08-30T05:32:11.902Z,1117.18
2022-08-30T05:33:11.906Z,1117.21
2022-08-30T05:34:11.907Z,1117.49
2022-08-30T05:35:11.907Z,1117.45
2022-08-30T05:36:11.907Z,1117.59
2022-08-30T05:37:11.910Z,1117.79
2022-08-30T05:38:11.917Z,1117.95
2022-08-30T05:39:11.916Z,1117.9
2022-08-30T05:40:11.942Z,1118.3
2022-08-30T05:41:11.915Z,1118.5
2022-08-30T05:42:16.705Z,1118.9
2022-08-30T05:43:11.919Z,1119.19
2022-08-30T05:44:11.921Z,1119.36
2022-08-30T05:45:11.931Z,1119.69
2022-08-30T05:46:11.976Z,1119.9
2022-08-30T05:47:11.944Z,1120.24
2022-08-30T05:48:12.934Z,1120.52
2022-08-30T05:49:11.944Z,1121
2022-08-30T05:50:11.939Z,1121.95
2022-08-30T05:51:11.946Z,1122.65
2022-08-30T05:52:11.943Z,1124.19
2022-08-30T05:53:15.348Z,1126.49
2022-08-30T05:54:11.954Z,1129.24
2022-08-30T05:55:11.969Z,1131.2
2022-08-30T05:56:11.944Z,1132.49
2022-08-30T05:57:11.951Z,1133.63
2022-08-30T05:58:11.966Z,1134.46
2022-08-30T05:59:11.951Z,1135.12
2022-08-30T06:00:11.964Z,1135.47
2022-08-30T06:01:11.958Z,1135.61
2022-08-30T06:02:12.040Z,1135.53
2022-08-30T06:03:11.999Z,1135.36
2022-08-30T06:04:11.968Z,1134.95
2022-08-30T06:05:12.470Z,1134.54
2022-08-30T06:06:11.970Z,1134.12
2022-08-30T06:07:13.236Z,1133.67
2022-08-30T06:08:11.969Z,1133.34
2022-08-30T06:09:11.971Z,1133.2
2022-08-30T06:10:11.971Z,1133.13
2022-08-30T06:11:11.975Z,1132.81
2022-08-30T06:12:11.973Z,1132.31
2022-08-30T06:13:11.974Z,1131.64
2022-08-30T06:14:11.976Z,1131.01
2022-08-30T06:15:11.979Z,1130.61
2022-08-30T06:16:12.083Z,1130.23
2022-08-30T06:17:11.981Z,1129.89
2022-08-30T06:18:12.123Z,1129.28
2022-08-30T06:19:11.992Z,1128.54
2022-08-30T06:20:11.989Z,1127.68
2022-08-30T06:21:15.064Z,1126.86
2022-08-30T06:22:11.991Z,1126.12
2022-08-30T06:23:11.991Z,1125.43
2022-08-30T06:24:11.996Z,1124.79
2022-08-30T06:25:11.996Z,1124.11
2022-08-30T06:26:11.998Z,1123.41
2022-08-30T06:27:12.000Z,1122.71
2022-08-30T06:28:12.103Z,1121.75
2022-08-30T06:29:12.003Z,1120.86
2022-08-30T06:30:12.008Z,1120.04
2022-08-30T06:31:12.080Z,1119.16
2022-08-30T06:32:12.008Z,1118
2022-08-30T06:33:12.010Z,1116.67
2022-08-30T06:34:12.015Z,1115.33
2022-08-30T06:35:12.026Z,1113.81
2022-08-30T06:36:12.014Z,1112.22
2022-08-30T06:37:12.017Z,1110.53
2022-08-30T06:38:12.023Z,1109.08
2022-08-30T06:39:12.021Z,1107.69
2022-08-30T06:40:12.092Z,1106.26
2022-08-30T06:41:12.029Z,1104.69
2022-08-30T06:42:12.024Z,1103.24
2022-08-30T06:43:12.043Z,1101.54
2022-08-30T06:44:12.034Z,1099.7
2022-08-30T06:45:12.038Z,1097.98
2022-08-30T06:46:12.090Z,1096.15
2022-08-30T06:47:12.034Z,1094.28
2022-08-30T06:48:12.244Z,1092.26
2022-08-30T06:49:12.043Z,1090.46
2022-08-30T06:50:12.239Z,1088.69
2022-08-30T06:51:12.044Z,1086.69
2022-08-30T06:52:12.044Z,1084.85
2022-08-30T06:53:12.051Z,1082.83
2022-08-30T06:54:12.271Z,1080.92
2022-08-30T06:55:12.048Z,1079.21
2022-08-30T06:56:16.334Z,1077.15
2022-08-30T06:57:12.054Z,1075.66
2022-08-30T06:58:12.056Z,1074.35
2022-08-30T06:59:12.075Z,1073.04
2022-08-30T07:00:12.057Z,1071.51
2022-08-30T07:01:12.063Z,1069.93
2022-08-30T07:02:12.164Z,1067.76
2022-08-30T07:03:12.137Z,1065.82
2022-08-30T07:04:12.407Z,1063.43
2022-08-30T07:05:14.215Z,1061.13
2022-08-30T07:06:12.067Z,1058.44
2022-08-30T07:07:12.071Z,1056.01
2022-08-30T07:08:12.075Z,1053.72
2022-08-30T07:09:12.087Z,1050.75
2022-08-30T07:10:12.079Z,1047.87
2022-08-30T07:11:12.082Z,1044.85
2022-08-30T07:12:12.083Z,1041.58
2022-08-30T07:13:12.082Z,1038.58
2022-08-30T07:14:12.088Z,1036.14
2022-08-30T07:15:14.862Z,1032.78
2022-08-30T07:16:12.171Z,1030.3
2022-08-30T07:17:12.091Z,1027.74
2022-08-30T07:18:12.092Z,1025.14
2022-08-30T07:19:18.624Z,1022.63
2022-08-30T07:20:12.096Z,1020.38
2022-08-30T07:21:12.101Z,1017.9
2022-08-30T07:22:12.098Z,1015.55
2022-08-30T07:23:12.105Z,1013.26
2022-08-30T07:24:12.117Z,1010.83
2022-08-30T07:25:12.126Z,1008.37
2022-08-30T07:26:12.107Z,1006.29
2022-08-30T07:27:12.110Z,1005.52
2022-08-30T07:28:12.117Z,1003.92
2022-08-30T07:29:12.121Z,1001.64
2022-08-30T07:30:12.131Z,999.12
2022-08-30T07:31:12.120Z,996.91
2022-08-30T07:32:12.121Z,994.11
2022-08-30T07:33:12.120Z,990.88
2022-08-30T07:34:12.127Z,987.79
2022-08-30T07:35:12.143Z,985.2
2022-08-30T07:36:12.126Z,981.68
2022-08-30T07:37:14.559Z,977.73
2022-08-30T07:38:12.130Z,973.78
2022-08-30T07:39:12.131Z,970.54
2022-08-30T07:40:12.238Z,968.15
2022-08-30T07:41:12.136Z,966.29
2022-08-30T07:42:12.138Z,964.55
2022-08-30T07:43:12.137Z,962.27
2022-08-30T07:44:12.139Z,958.82
2022-08-30T07:45:12.164Z,956.09
2022-08-30T07:46:12.231Z,953.71
2022-08-30T07:47:15.164Z,952.07
2022-08-30T07:48:12.150Z,952.61
2022-08-30T07:49:12.148Z,953.19
2022-08-30T07:50:12.172Z,952.85
2022-08-30T07:51:12.154Z,952.31
2022-08-30T07:52:12.155Z,950.74
2022-08-30T07:53:12.195Z,948.25
2022-08-30T07:54:12.160Z,946.57
2022-08-30T07:55:12.180Z,944.86
2022-08-30T07:56:12.161Z,943.86
2022-08-30T07:57:12.166Z,943.73
2022-08-30T07:58:15.040Z,943.29
2022-08-30T07:59:12.169Z,941.44
2022-08-30T08:00:12.190Z,938.43
2022-08-30T08:01:12.232Z,934.87
2022-08-30T08:02:12.192Z,930.82
2022-08-30T08:03:12.180Z,926.93
2022-08-30T08:04:12.371Z,924.33
2022-08-30T08:05:16.499Z,922.18
2022-08-30T08:06:12.188Z,920.59
2022-08-30T08:07:12.184Z,919.39
2022-08-30T08:08:12.186Z,918.56
2022-08-30T08:09:15.047Z,917.84
2022-08-30T08:10:12.206Z,916.85
2022-08-30T08:11:12.191Z,915.25
2022-08-30T08:12:12.192Z,912.09
2022-08-30T08:13:12.204Z,908.9
2022-08-30T08:14:12.246Z,906.06
2022-08-30T08:15:12.217Z,903.17
2022-08-30T08:16:12.288Z,901.96
2022-08-30T08:17:12.209Z,900.54
2022-08-30T08:18:12.266Z,899.4
2022-08-30T08:19:12.210Z,897.17
2022-08-30T08:20:15.491Z,894.91
2022-08-30T08:21:12.261Z,892.22
2022-08-30T08:22:27.533Z,889.28
2022-08-30T08:23:12.217Z,887.67
2022-08-30T08:24:12.214Z,886.03
2022-08-30T08:25:12.219Z,884.56
2022-08-30T08:26:12.221Z,882.6
2022-08-30T08:27:12.221Z,879.9
2022-08-30T08:28:12.221Z,876.27
2022-08-30T08:29:12.231Z,872.19
2022-08-30T08:30:12.228Z,868.44
2022-08-30T08:31:12.237Z,863.62
2022-08-30T08:32:12.231Z,859.05
2022-08-30T08:33:12.236Z,855.22
2022-08-30T08:34:12.237Z,852.34
2022-08-30T08:35:12.238Z,848.24
2022-08-30T08:36:12.241Z,844.89
2022-08-30T08:37:12.242Z,841.26
2022-08-30T08:38:12.394Z,837.22
2022-08-30T08:39:12.255Z,834.22
2022-08-30T08:40:12.283Z,830.26
2022-08-30T08:41:12.249Z,826.46
2022-08-30T08:42:12.255Z,822.81
2022-08-30T08:43:12.252Z,821.5
2022-08-30T08:44:12.252Z,819.45
2022-08-30T08:45:12.260Z,816.39
2022-08-30T08:46:12.310Z,812.32
2022-08-30T08:47:12.260Z,807.77
2022-08-30T08:48:12.283Z,803.77
2022-08-30T08:49:12.266Z,800.63
2022-08-30T08:50:12.264Z,797.94
2022-08-30T08:51:12.268Z,795.55
2022-08-30T08:52:12.274Z,792.67
2022-08-30T08:53:20.645Z,789.05
2022-08-30T08:54:12.272Z,786.75
2022-08-30T08:55:12.283Z,783.59
2022-08-30T08:56:12.279Z,779.46
2022-08-30T08:57:13.891Z,774.1
2022-08-30T08:58:12.338Z,768.78
2022-08-30T08:59:12.284Z,765.41
2022-08-30T09:00:12.287Z,763.85
2022-08-30T09:01:12.310Z,763.53
2022-08-30T09:02:12.295Z,763.95
2022-08-30T09:03:12.297Z,764.4
2022-08-30T09:04:12.291Z,764.58
2022-08-30T09:05:12.355Z,763.48
2022-08-30T09:06:12.305Z,761.11
2022-08-30T09:07:12.299Z,756.28
2022-08-30T09:08:12.307Z,749.26
2022-08-30T09:09:12.308Z,743.64
2022-08-30T09:10:12.310Z,737.69
2022-08-30T09:11:12.307Z,734.11
2022-08-30T09:12:12.307Z,731.82
2022-08-30T09:13:13.800Z,730.04
2022-08-30T09:14:12.326Z,726.06
2022-08-30T09:15:12.327Z,721.3
2022-08-30T09:16:13.957Z,718.46
2022-08-30T09:17:12.330Z,715.84
2022-08-30T09:18:19.194Z,713.16
2022-08-30T09:19:12.328Z,709.64
2022-08-30T09:20:12.324Z,707
2022-08-30T09:21:12.343Z,707.27
2022-08-30T09:22:12.329Z,709.15
2022-08-30T09:23:12.338Z,712.3
2022-08-30T09:24:12.331Z,714.48
2022-08-30T09:25:12.333Z,715.11
2022-08-30T09:26:12.351Z,713.98
2022-08-30T09:27:12.339Z,710.26
2022-08-30T09:28:12.338Z,706.25
2022-08-30T09:29:12.343Z,700.53
2022-08-30T09:30:14.432Z,696.45
2022-08-30T09:31:12.623Z,693.56
2022-08-30T09:32:24.998Z,690.13
2022-08-30T09:33:12.363Z,685.64
2022-08-30T09:34:12.353Z,679.6
2022-08-30T09:35:12.355Z,674.55
2022-08-30T09:36:12.370Z,672.25
2022-08-30T09:37:12.361Z,668.44
2022-08-30T09:38:12.678Z,663
2022-08-30T09:39:12.366Z,659.97
2022-08-30T09:40:12.408Z,657.71
2022-08-30T09:41:12.381Z,656.03
2022-08-30T09:42:15.432Z,657.58
2022-08-30T09:43:12.370Z,661.71
2022-08-30T09:44:12.373Z,662.61
2022-08-30T09:45:12.375Z,662.22
2022-08-30T09:46:15.279Z,662.05
2022-08-30T09:47:12.387Z,659.9
2022-08-30T09:48:12.421Z,660.07
2022-08-30T09:49:12.379Z,661.63
2022-08-30T09:50:12.387Z,661.85
2022-08-30T09:51:12.407Z,660.19
2022-08-30T09:52:12.384Z,658.93
2022-08-30T09:53:12.386Z,656.46
2022-08-30T09:54:19.471Z,654
2022-08-30T09:55:12.390Z,653.06
2022-08-30T09:56:12.417Z,652.02
2022-08-30T09:57:12.546Z,648.26
2022-08-30T09:58:12.854Z,641.66
2022-08-30T09:59:12.403Z,635.65
2022-08-30T10:00:13.438Z,632.2
2022-08-30T10:01:12.462Z,629.67
2022-08-30T10:02:12.445Z,626.73
2022-08-30T10:03:12.405Z,625.41
2022-08-30T10:04:12.411Z,624.34
2022-08-30T10:05:12.412Z,623.43
2022-08-30T10:06:12.433Z,622.18
2022-08-30T10:07:12.418Z,619.2
2022-08-30T10:08:12.531Z,614.76
2022-08-30T10:09:12.421Z,611.19
2022-08-30T10:10:12.421Z,609.9
2022-08-30T10:11:12.440Z,608.6
2022-08-30T10:12:12.424Z,608
2022-08-30T10:13:12.439Z,607.47
2022-08-30T10:14:15.207Z,608.58
2022-08-30T10:15:12.431Z,610.67
2022-08-30T10:16:12.448Z,613
2022-08-30T10:17:12.444Z,615.82
2022-08-30T10:18:12.543Z,619.53
2022-08-30T10:19:12.444Z,620.78
2022-08-30T10:20:12.482Z,620.21
2022-08-30T10:21:15.608Z,620.2
2022-08-30T10:22:12.446Z,619.28
2022-08-30T10:23:12.462Z,617.99
2022-08-30T10:24:12.451Z,613.75
2022-08-30T10:25:16.049Z,614.28
2022-08-30T10:26:12.473Z,614.82
2022-08-30T10:27:12.549Z,612.89
2022-08-30T10:28:12.455Z,613.6
2022-08-30T10:29:12.461Z,614.33
2022-08-30T10:30:12.458Z,613.78
2022-08-30T10:31:12.480Z,615.41
2022-08-30T10:32:12.465Z,620.53
2022-08-30T10:33:12.571Z,624.4
2022-08-30T10:34:12.478Z,626.55
2022-08-30T10:35:14.303Z,625.25
2022-08-30T10:36:15.611Z,621.77
2022-08-30T10:37:12.509Z,620.45
2022-08-30T10:38:12.476Z,620.81
2022-08-30T10:39:14.832Z,619.88
2022-08-30T10:40:12.540Z,618.79
2022-08-30T10:41:12.481Z,616.2
2022-08-30T10:42:12.490Z,609.03
2022-08-30T10:43:12.500Z,600.99
2022-08-30T10:44:12.494Z,594.99
2022-08-30T10:45:12.487Z,592.51
2022-08-30T10:46:12.495Z,589.09
2022-08-30T10:47:18.534Z,588.76
2022-08-30T10:48:12.495Z,588.36
2022-08-30T10:49:12.496Z,585.19
2022-08-30T10:50:12.499Z,580.05
2022-08-30T10:51:12.502Z,576.37
2022-08-30T10:52:12.512Z,572.94
2022-08-30T10:53:12.509Z,571.59
2022-08-30T10:54:12.523Z,570.82
2022-08-30T10:55:12.512Z,568.7
2022-08-30T10:56:13.073Z,567.72
2022-08-30T10:57:12.516Z,564.85
2022-08-30T10:58:15.430Z,561.56
2022-08-30T10:59:12.516Z,557.68
2022-08-30T11:00:13.767Z,554.53
2022-08-30T11:01:12.836Z,550.86
2022-08-30T11:43:39.545Z,486.91
2022-08-30T11:44:39.546Z,486.08
2022-08-30T11:45:39.595Z,485.08
2022-08-30T11:46:39.551Z,483.86
2022-08-30T11:47:39.566Z,482.43
2022-08-30T11:48:39.552Z,484.04
2022-08-30T11:49:39.555Z,488.55
2022-08-30T11:50:39.556Z,492.21
2022-08-30T11:51:39.558Z,495.71
2022-08-30T11:52:39.613Z,497.74
2022-08-30T11:53:39.571Z,498.96
2022-08-30T11:54:39.568Z,497.93
2022-08-30T11:55:39.581Z,498.15
2022-08-30T11:56:39.570Z,497.32
2022-08-30T11:57:39.594Z,498.36
2022-08-30T11:58:39.586Z,498.73
2022-08-30T11:59:39.576Z,499.96
2022-08-30T12:00:39.576Z,502.79
2022-08-30T12:01:50.441Z,503.62
2022-08-30T12:02:39.764Z,503.42
2022-08-30T12:03:39.674Z,505.05
2022-08-30T12:04:39.587Z,506.65
2022-08-30T12:05:39.596Z,507.85
2022-08-30T12:06:39.587Z,508.07
2022-08-30T12:07:39.610Z,507.28
2022-08-30T12:08:39.590Z,506.59
2022-08-30T12:09:39.593Z,502.15
2022-08-30T12:10:39.598Z,496.67
2022-08-30T12:11:39.598Z,492.85
2022-08-30T12:12:39.616Z,491.97
2022-08-30T12:13:39.602Z,491.56
2022-08-30T12:14:40.877Z,489.29
2022-08-30T12:15:39.604Z,486.62
2022-08-30T12:16:42.382Z,486.24
2022-08-30T12:17:39.626Z,486.63
2022-08-30T12:18:40.634Z,489.93
2022-08-30T12:19:41.381Z,498.06
2022-08-30T12:20:39.619Z,503.54
2022-08-30T12:21:44.087Z,510.21
2022-08-30T12:22:39.736Z,514.66
2022-08-30T12:23:44.403Z,520.87
2022-08-30T12:24:39.625Z,530.06
2022-08-30T12:25:39.629Z,538.97
2022-08-30T12:26:39.626Z,545.29
2022-08-30T12:27:40.747Z,551.29
2022-08-30T12:28:42.039Z,558.51
2022-08-30T12:29:39.635Z,568.13
2022-08-30T12:30:39.645Z,573.88
2022-08-30T12:31:39.689Z,575.36
2022-08-30T12:32:39.638Z,575.38
2022-08-30T12:33:40.424Z,576.9
2022-08-30T12:34:39.642Z,578.63
2022-08-30T12:35:39.645Z,580.08
2022-08-30T12:36:39.647Z,582.17
2022-08-30T12:37:41.423Z,584.08
2022-08-30T12:38:42.496Z,585.58
2022-08-30T12:39:39.652Z,584.84
2022-08-30T12:40:39.705Z,583.84
2022-08-30T12:41:43.376Z,580.63
2022-08-30T12:42:39.658Z,578.14
2022-08-30T12:43:40.853Z,575.1
2022-08-30T12:44:39.663Z,571.26
2022-08-30T12:45:39.724Z,567.42
2022-08-30T12:46:39.671Z,562.79
2022-08-30T12:47:39.671Z,558.76
2022-08-30T12:48:39.690Z,558.92
2022-08-30T12:49:42.534Z,557.98
2022-08-30T12:50:39.674Z,557.13
2022-08-30T12:51:41.058Z,558.32
2022-08-30T12:52:39.681Z,555.99
2022-08-30T12:53:39.680Z,553.28
2022-08-30T12:54:39.682Z,550.92
2022-08-30T12:55:39.686Z,551.89
2022-08-30T12:56:49.311Z,550.38
2022-08-30T12:57:39.686Z,549.93
2022-08-30T12:58:39.694Z,549.55
2022-08-30T12:59:39.696Z,549.16